sensor_id;sensor_type;location;lat;lon;timestamp;temperature;humidity
51793;DHT22;37850;53.178;6.376;2023-04-24T00:02:19;11.40;99.90
51793;DHT22;37850;53.178;6.376;2023-04-24T00:04:45;11.40;99.90
51793;DHT22;37850;53.178;6.376;2023-04-24T00:07:11;11.40;99.90
51793;DHT22;37850;53.178;6.376;2023-04-24T00:09:38;11.40;99.90
51793;DHT22;37850;53.178;6.376;2023-04-24T00:12:04;11.30;99.90
51793;DHT22;37850;53.178;6.376;2023-04-24T00:14:33;11.30;99.90
51793;DHT22;37850;53.178;6.376;2023-04-24T00:17:00;11.30;99.90
51793;DHT22;37850;53.178;6.376;2023-04-24T00:19:26;11.40;99.90
51793;DHT22;37850;53.178;6.376;2023-04-24T00:21:52;11.40;99.90
51793;DHT22;37850;53.178;6.376;2023-04-24T00:24:22;11.40;99.90
51793;DHT22;37850;53.178;6.376;2023-04-24T00:26:48;11.30;99.90
51793;DHT22;37850;53.178;6.376;2023-04-24T00:29:13;11.40;99.90
51793;DHT22;37850;53.178;6.376;2023-04-24T00:31:39;11.30;99.90
51793;DHT22;37850;53.178;6.376;2023-04-24T00:34:05;11.30;99.90
51793;DHT22;37850;53.178;6.376;2023-04-24T00:36:32;11.30;99.90
51793;DHT22;37850;53.178;6.376;2023-04-24T00:38:58;11.30;99.90
51793;DHT22;37850;53.178;6.376;2023-04-24T00:41:24;11.30;99.90
51793;DHT22;37850;53.178;6.376;2023-04-24T00:43:52;11.30;99.90
51793;DHT22;37850;53.178;6.376;2023-04-24T00:46:18;11.30;99.90
51793;DHT22;37850;53.178;6.376;2023-04-24T00:48:44;11.30;99.90
51793;DHT22;37850;53.178;6.376;2023-04-24T00:51:10;11.30;99.90
51793;DHT22;37850;53.178;6.376;2023-04-24T00:53:36;11.20;99.90
51793;DHT22;37850;53.178;6.376;2023-04-24T00:56:02;11.20;99.90
51793;DHT22;37850;53.178;6.376;2023-04-24T00:58:29;11.20;99.90
51793;DHT22;37850;53.178;6.376;2023-04-24T01:00:56;11.20;99.90
51793;DHT22;37850;53.178;6.376;2023-04-24T01:03:26;11.10;99.90
51793;DHT22;37850;53.178;6.376;2023-04-24T01:05:54;11.10;99.90
51793;DHT22;37850;53.178;6.376;2023-04-24T01:08:22;11.10;99.90
51793;DHT22;37850;53.178;6.376;2023-04-24T01:10:52;11.10;99.90
51793;DHT22;37850;53.178;6.376;2023-04-24T01:13:19;11.10;99.90
51793;DHT22;37850;53.178;6.376;2023-04-24T01:15:46;11.00;99.90
51793;DHT22;37850;53.178;6.376;2023-04-24T01:18:13;11.10;99.90
51793;DHT22;37850;53.178;6.376;2023-04-24T01:20:42;11.10;99.90
51793;DHT22;37850;53.178;6.376;2023-04-24T01:23:10;11.00;99.90
51793;DHT22;37850;53.178;6.376;2023-04-24T01:25:36;11.00;99.90
51793;DHT22;37850;53.178;6.376;2023-04-24T01:28:03;11.00;99.90
51793;DHT22;37850;53.178;6.376;2023-04-24T01:30:29;11.00;99.90
51793;DHT22;37850;53.178;6.376;2023-04-24T01:32:56;11.00;99.90
51793;DHT22;37850;53.178;6.376;2023-04-24T01:35:22;11.00;99.90
51793;DHT22;37850;53.178;6.376;2023-04-24T01:37:47;11.00;99.90
51793;DHT22;37850;53.178;6.376;2023-04-24T01:40:13;11.00;99.90
51793;DHT22;37850;53.178;6.376;2023-04-24T01:42:41;10.90;99.90
51793;DHT22;37850;53.178;6.376;2023-04-24T01:45:11;10.90;99.90
51793;DHT22;37850;53.178;6.376;2023-04-24T01:47:38;11.00;99.90
51793;DHT22;37850;53.178;6.376;2023-04-24T01:50:04;10.90;99.90
51793;DHT22;37850;53.178;6.376;2023-04-24T01:52:31;10.90;99.90
51793;DHT22;37850;53.178;6.376;2023-04-24T01:55:03;10.90;99.90
51793;DHT22;37850;53.178;6.376;2023-04-24T01:57:30;10.90;99.90
51793;DHT22;37850;53.178;6.376;2023-04-24T01:59:56;10.90;99.90
51793;DHT22;37850;53.178;6.376;2023-04-24T02:02:22;11.20;99.90
51793;DHT22;37850;53.178;6.376;2023-04-24T02:04:50;10.80;99.90
51793;DHT22;37850;53.178;6.376;2023-04-24T02:07:16;10.80;99.90
51793;DHT22;37850;53.178;6.376;2023-04-24T02:09:41;10.70;99.90
51793;DHT22;37850;53.178;6.376;2023-04-24T02:12:07;10.70;99.90
51793;DHT22;37850;53.178;6.376;2023-04-24T02:14:33;10.70;99.90
51793;DHT22;37850;53.178;6.376;2023-04-24T02:16:58;10.70;99.90
51793;DHT22;37850;53.178;6.376;2023-04-24T02:19:24;10.70;99.90
51793;DHT22;37850;53.178;6.376;2023-04-24T02:21:50;10.60;99.90
51793;DHT22;37850;53.178;6.376;2023-04-24T02:24:15;10.60;99.90
51793;DHT22;37850;53.178;6.376;2023-04-24T02:26:41;10.70;99.90
51793;DHT22;37850;53.178;6.376;2023-04-24T02:29:07;10.60;99.90
51793;DHT22;37850;53.178;6.376;2023-04-24T02:31:33;10.60;99.90
51793;DHT22;37850;53.178;6.376;2023-04-24T02:33:59;10.60;99.90
51793;DHT22;37850;53.178;6.376;2023-04-24T02:36:25;10.60;99.90
51793;DHT22;37850;53.178;6.376;2023-04-24T02:38:50;10.60;99.90
51793;DHT22;37850;53.178;6.376;2023-04-24T02:41:16;10.60;99.90
51793;DHT22;37850;53.178;6.376;2023-04-24T02:43:42;10.30;99.90
51793;DHT22;37850;53.178;6.376;2023-04-24T02:46:07;10.70;99.90
51793;DHT22;37850;53.178;6.376;2023-04-24T02:48:33;10.60;99.90
51793;DHT22;37850;53.178;6.376;2023-04-24T02:50:59;10.60;99.90
51793;DHT22;37850;53.178;6.376;2023-04-24T02:53:25;10.60;99.90
51793;DHT22;37850;53.178;6.376;2023-04-24T02:55:51;10.60;99.90
51793;DHT22;37850;53.178;6.376;2023-04-24T02:58:16;10.60;99.90
51793;DHT22;37850;53.178;6.376;2023-04-24T03:00:42;10.60;99.90
51793;DHT22;37850;53.178;6.376;2023-04-24T03:03:09;10.60;99.90
51793;DHT22;37850;53.178;6.376;2023-04-24T03:05:35;10.60;99.90
51793;DHT22;37850;53.178;6.376;2023-04-24T03:08:00;10.60;99.90
51793;DHT22;37850;53.178;6.376;2023-04-24T03:10:26;10.60;99.90
51793;DHT22;37850;53.178;6.376;2023-04-24T03:12:52;10.60;99.90
51793;DHT22;37850;53.178;6.376;2023-04-24T03:15:18;10.60;99.90
51793;DHT22;37850;53.178;6.376;2023-04-24T03:17:43;10.60;99.90
51793;DHT22;37850;53.178;6.376;2023-04-24T03:20:09;10.60;99.90
51793;DHT22;37850;53.178;6.376;2023-04-24T03:22:35;10.60;99.90
51793;DHT22;37850;53.178;6.376;2023-04-24T03:25:01;10.60;99.90
51793;DHT22;37850;53.178;6.376;2023-04-24T03:27:27;10.80;99.90
51793;DHT22;37850;53.178;6.376;2023-04-24T03:29:53;10.60;99.90
51793;DHT22;37850;53.178;6.376;2023-04-24T03:32:23;10.60;99.90
51793;DHT22;37850;53.178;6.376;2023-04-24T03:34:50;10.60;99.90
51793;DHT22;37850;53.178;6.376;2023-04-24T03:37:16;10.60;99.90
51793;DHT22;37850;53.178;6.376;2023-04-24T03:39:42;10.60;99.90
51793;DHT22;37850;53.178;6.376;2023-04-24T03:42:08;11.00;99.90
51793;DHT22;37850;53.178;6.376;2023-04-24T03:44:34;10.60;99.90
51793;DHT22;37850;53.178;6.376;2023-04-24T03:47:00;10.60;99.90
51793;DHT22;37850;53.178;6.376;2023-04-24T03:49:26;10.60;99.90
51793;DHT22;37850;53.178;6.376;2023-04-24T03:51:52;10.60;99.90
51793;DHT22;37850;53.178;6.376;2023-04-24T03:54:21;10.60;99.90
51793;DHT22;37850;53.178;6.376;2023-04-24T03:56:46;10.60;99.90
51793;DHT22;37850;53.178;6.376;2023-04-24T03:59:12;10.60;99.90
51793;DHT22;37850;53.178;6.376;2023-04-24T04:01:39;10.60;99.90
51793;DHT22;37850;53.178;6.376;2023-04-24T04:04:05;10.60;99.90
51793;DHT22;37850;53.178;6.376;2023-04-24T04:06:31;10.60;99.90
51793;DHT22;37850;53.178;6.376;2023-04-24T04:08:58;10.60;99.90
51793;DHT22;37850;53.178;6.376;2023-04-24T04:11:24;10.60;99.90
51793;DHT22;37850;53.178;6.376;2023-04-24T04:13:50;10.80;99.90
51793;DHT22;37850;53.178;6.376;2023-04-24T04:16:15;10.60;99.90
51793;DHT22;37850;53.178;6.376;2023-04-24T04:18:44;10.60;99.90
51793;DHT22;37850;53.178;6.376;2023-04-24T04:21:11;10.60;99.90
51793;DHT22;37850;53.178;6.376;2023-04-24T04:23:36;10.60;99.90
51793;DHT22;37850;53.178;6.376;2023-04-24T04:26:03;10.60;99.90
51793;DHT22;37850;53.178;6.376;2023-04-24T04:28:30;10.60;99.90
51793;DHT22;37850;53.178;6.376;2023-04-24T04:30:57;10.60;99.90
51793;DHT22;37850;53.178;6.376;2023-04-24T04:33:24;10.60;99.90
51793;DHT22;37850;53.178;6.376;2023-04-24T04:35:50;10.60;99.90
51793;DHT22;37850;53.178;6.376;2023-04-24T04:38:18;10.60;99.90
51793;DHT22;37850;53.178;6.376;2023-04-24T04:40:44;10.60;99.90
51793;DHT22;37850;53.178;6.376;2023-04-24T04:43:11;10.60;99.90
51793;DHT22;37850;53.178;6.376;2023-04-24T04:45:39;10.60;99.90
51793;DHT22;37850;53.178;6.376;2023-04-24T04:48:05;10.60;99.90
51793;DHT22;37850;53.178;6.376;2023-04-24T04:50:33;10.60;99.90
51793;DHT22;37850;53.178;6.376;2023-04-24T04:52:59;10.50;99.90
51793;DHT22;37850;53.178;6.376;2023-04-24T04:55:25;10.90;99.90
51793;DHT22;37850;53.178;6.376;2023-04-24T04:57:51;10.50;99.90
51793;DHT22;37850;53.178;6.376;2023-04-24T05:00:17;10.60;99.90
51793;DHT22;37850;53.178;6.376;2023-04-24T05:02:43;10.50;99.90
51793;DHT22;37850;53.178;6.376;2023-04-24T05:05:09;10.60;99.90
51793;DHT22;37850;53.178;6.376;2023-04-24T05:07:34;10.60;99.90
51793;DHT22;37850;53.178;6.376;2023-04-24T05:10:00;10.50;99.90
51793;DHT22;37850;53.178;6.376;2023-04-24T05:12:26;10.50;99.90
51793;DHT22;37850;53.178;6.376;2023-04-24T05:14:52;10.50;99.90
51793;DHT22;37850;53.178;6.376;2023-04-24T05:17:18;10.50;99.90
51793;DHT22;37850;53.178;6.376;2023-04-24T05:19:44;10.50;99.90
51793;DHT22;37850;53.178;6.376;2023-04-24T05:22:10;10.50;99.90
51793;DHT22;37850;53.178;6.376;2023-04-24T05:24:37;10.50;99.90
51793;DHT22;37850;53.178;6.376;2023-04-24T05:27:03;10.50;99.90
51793;DHT22;37850;53.178;6.376;2023-04-24T05:29:30;10.50;99.90
51793;DHT22;37850;53.178;6.376;2023-04-24T05:31:57;10.40;99.90
51793;DHT22;37850;53.178;6.376;2023-04-24T05:34:23;10.40;99.90
51793;DHT22;37850;53.178;6.376;2023-04-24T05:36:49;10.40;99.90
51793;DHT22;37850;53.178;6.376;2023-04-24T05:39:16;10.40;99.90
51793;DHT22;37850;53.178;6.376;2023-04-24T05:41:42;10.40;99.90
51793;DHT22;37850;53.178;6.376;2023-04-24T05:44:08;10.40;99.90
51793;DHT22;37850;53.178;6.376;2023-04-24T05:46:33;10.30;99.90
51793;DHT22;37850;53.178;6.376;2023-04-24T05:48:59;10.30;99.90
51793;DHT22;37850;53.178;6.376;2023-04-24T05:51:25;10.30;99.90
51793;DHT22;37850;53.178;6.376;2023-04-24T05:53:51;10.20;99.90
51793;DHT22;37850;53.178;6.376;2023-04-24T05:56:18;10.60;99.90
51793;DHT22;37850;53.178;6.376;2023-04-24T05:58:44;10.20;99.90
51793;DHT22;37850;53.178;6.376;2023-04-24T06:01:10;10.20;99.90
51793;DHT22;37850;53.178;6.376;2023-04-24T06:03:38;10.20;99.90
51793;DHT22;37850;53.178;6.376;2023-04-24T06:06:06;10.20;99.90
51793;DHT22;37850;53.178;6.376;2023-04-24T06:08:31;10.20;99.90
51793;DHT22;37850;53.178;6.376;2023-04-24T06:10:58;10.20;99.90
51793;DHT22;37850;53.178;6.376;2023-04-24T06:13:23;10.20;99.90
51793;DHT22;37850;53.178;6.376;2023-04-24T06:15:53;10.20;99.90
51793;DHT22;37850;53.178;6.376;2023-04-24T06:18:19;10.50;99.90
51793;DHT22;37850;53.178;6.376;2023-04-24T06:20:46;10.20;99.90
51793;DHT22;37850;53.178;6.376;2023-04-24T06:23:12;10.20;99.90
51793;DHT22;37850;53.178;6.376;2023-04-24T06:25:38;10.10;99.90
51793;DHT22;37850;53.178;6.376;2023-04-24T06:28:04;10.20;99.90
51793;DHT22;37850;53.178;6.376;2023-04-24T06:30:30;10.20;99.90
51793;DHT22;37850;53.178;6.376;2023-04-24T06:32:56;10.10;99.90
51793;DHT22;37850;53.178;6.376;2023-04-24T06:35:22;10.10;99.90
51793;DHT22;37850;53.178;6.376;2023-04-24T06:37:48;10.10;99.90
51793;DHT22;37850;53.178;6.376;2023-04-24T06:40:14;10.20;99.90
51793;DHT22;37850;53.178;6.376;2023-04-24T06:42:40;10.20;99.90
51793;DHT22;37850;53.178;6.376;2023-04-24T06:45:06;10.10;99.90
51793;DHT22;37850;53.178;6.376;2023-04-24T06:47:32;10.10;99.90
51793;DHT22;37850;53.178;6.376;2023-04-24T06:49:57;10.10;99.90
51793;DHT22;37850;53.178;6.376;2023-04-24T06:52:23;10.10;99.90
51793;DHT22;37850;53.178;6.376;2023-04-24T06:54:49;10.10;99.90
51793;DHT22;37850;53.178;6.376;2023-04-24T06:57:15;10.10;99.90
51793;DHT22;37850;53.178;6.376;2023-04-24T06:59:42;10.10;99.90
51793;DHT22;37850;53.178;6.376;2023-04-24T07:02:08;10.20;99.90
51793;DHT22;37850;53.178;6.376;2023-04-24T07:04:33;10.10;99.90
51793;DHT22;37850;53.178;6.376;2023-04-24T07:06:59;10.10;99.90
51793;DHT22;37850;53.178;6.376;2023-04-24T07:09:25;10.10;99.90
51793;DHT22;37850;53.178;6.376;2023-04-24T07:11:52;10.10;99.90
51793;DHT22;37850;53.178;6.376;2023-04-24T07:14:18;10.10;99.90
51793;DHT22;37850;53.178;6.376;2023-04-24T07:16:45;10.10;99.90
51793;DHT22;37850;53.178;6.376;2023-04-24T07:19:11;10.10;99.90
51793;DHT22;37850;53.178;6.376;2023-04-24T07:21:37;10.10;99.90
51793;DHT22;37850;53.178;6.376;2023-04-24T07:24:03;10.00;99.90
51793;DHT22;37850;53.178;6.376;2023-04-24T07:26:29;10.00;99.90
51793;DHT22;37850;53.178;6.376;2023-04-24T07:28:55;10.00;99.90
51793;DHT22;37850;53.178;6.376;2023-04-24T07:31:21;10.00;99.90
51793;DHT22;37850;53.178;6.376;2023-04-24T07:33:48;10.00;99.90
51793;DHT22;37850;53.178;6.376;2023-04-24T07:36:13;10.00;99.90
51793;DHT22;37850;53.178;6.376;2023-04-24T07:38:45;9.90;99.90
51793;DHT22;37850;53.178;6.376;2023-04-24T07:41:12;10.00;99.90
51793;DHT22;37850;53.178;6.376;2023-04-24T07:43:37;9.90;99.90
51793;DHT22;37850;53.178;6.376;2023-04-24T07:46:03;10.00;99.90
51793;DHT22;37850;53.178;6.376;2023-04-24T07:48:29;9.90;99.90
51793;DHT22;37850;53.178;6.376;2023-04-24T07:50:55;9.80;99.90
51793;DHT22;37850;53.178;6.376;2023-04-24T07:53:21;9.80;99.90
51793;DHT22;37850;53.178;6.376;2023-04-24T07:55:46;9.80;99.90
51793;DHT22;37850;53.178;6.376;2023-04-24T07:58:12;9.70;99.90
51793;DHT22;37850;53.178;6.376;2023-04-24T08:00:38;9.70;99.90
51793;DHT22;37850;53.178;6.376;2023-04-24T08:03:04;9.70;99.90
51793;DHT22;37850;53.178;6.376;2023-04-24T08:05:30;9.80;99.90
51793;DHT22;37850;53.178;6.376;2023-04-24T08:07:55;9.60;99.90
51793;DHT22;37850;53.178;6.376;2023-04-24T08:10:22;9.60;99.90
51793;DHT22;37850;53.178;6.376;2023-04-24T08:12:48;9.60;99.90
51793;DHT22;37850;53.178;6.376;2023-04-24T08:15:14;9.60;99.90
51793;DHT22;37850;53.178;6.376;2023-04-24T08:17:43;9.80;99.90
51793;DHT22;37850;53.178;6.376;2023-04-24T08:20:10;10.00;99.90
51793;DHT22;37850;53.178;6.376;2023-04-24T08:22:41;9.50;99.90
51793;DHT22;37850;53.178;6.376;2023-04-24T08:25:08;9.50;99.90
51793;DHT22;37850;53.178;6.376;2023-04-24T08:27:34;9.50;99.90
51793;DHT22;37850;53.178;6.376;2023-04-24T08:30:02;9.50;99.90
51793;DHT22;37850;53.178;6.376;2023-04-24T08:32:28;9.50;99.90
51793;DHT22;37850;53.178;6.376;2023-04-24T08:34:57;9.40;99.90
51793;DHT22;37850;53.178;6.376;2023-04-24T08:37:23;9.40;99.90
51793;DHT22;37850;53.178;6.376;2023-04-24T08:39:50;9.90;99.90
51793;DHT22;37850;53.178;6.376;2023-04-24T08:42:17;9.30;99.90
51793;DHT22;37850;53.178;6.376;2023-04-24T08:44:43;9.30;99.90
51793;DHT22;37850;53.178;6.376;2023-04-24T08:47:11;9.30;99.90
51793;DHT22;37850;53.178;6.376;2023-04-24T08:49:38;9.30;99.90
51793;DHT22;37850;53.178;6.376;2023-04-24T08:52:05;9.20;99.90
51793;DHT22;37850;53.178;6.376;2023-04-24T08:54:33;9.20;99.90
51793;DHT22;37850;53.178;6.376;2023-04-24T08:57:01;9.20;99.90
51793;DHT22;37850;53.178;6.376;2023-04-24T08:59:28;9.40;99.90
51793;DHT22;37850;53.178;6.376;2023-04-24T09:01:55;9.70;99.90
51793;DHT22;37850;53.178;6.376;2023-04-24T09:04:22;9.20;99.90
51793;DHT22;37850;53.178;6.376;2023-04-24T09:06:55;9.20;99.90
51793;DHT22;37850;53.178;6.376;2023-04-24T09:09:22;9.20;99.90
51793;DHT22;37850;53.178;6.376;2023-04-24T09:11:49;9.20;99.90
51793;DHT22;37850;53.178;6.376;2023-04-24T09:14:16;9.20;99.90
51793;DHT22;37850;53.178;6.376;2023-04-24T09:16:42;9.20;99.90
51793;DHT22;37850;53.178;6.376;2023-04-24T09:19:08;9.20;99.90
51793;DHT22;37850;53.178;6.376;2023-04-24T09:21:34;9.20;99.90
51793;DHT22;37850;53.178;6.376;2023-04-24T09:24:06;9.20;99.90
51793;DHT22;37850;53.178;6.376;2023-04-24T09:26:35;9.20;99.90
51793;DHT22;37850;53.178;6.376;2023-04-24T09:29:02;9.30;99.90
51793;DHT22;37850;53.178;6.376;2023-04-24T09:31:29;9.30;99.90
51793;DHT22;37850;53.178;6.376;2023-04-24T09:34:02;9.30;99.90
51793;DHT22;37850;53.178;6.376;2023-04-24T09:36:33;9.30;99.90
51793;DHT22;37850;53.178;6.376;2023-04-24T09:39:07;9.20;99.90
51793;DHT22;37850;53.178;6.376;2023-04-24T09:41:51;9.20;99.90
51793;DHT22;37850;53.178;6.376;2023-04-24T09:44:22;9.20;99.90
51793;DHT22;37850;53.178;6.376;2023-04-24T09:46:56;9.20;99.90
51793;DHT22;37850;53.178;6.376;2023-04-24T09:49:25;9.30;99.90
51793;DHT22;37850;53.178;6.376;2023-04-24T09:51:51;9.20;99.90
51793;DHT22;37850;53.178;6.376;2023-04-24T09:54:19;9.30;99.90
51793;DHT22;37850;53.178;6.376;2023-04-24T09:56:50;9.30;99.90
51793;DHT22;37850;53.178;6.376;2023-04-24T09:59:19;9.30;99.90
51793;DHT22;37850;53.178;6.376;2023-04-24T10:01:46;9.30;99.90
51793;DHT22;37850;53.178;6.376;2023-04-24T10:04:24;9.40;99.90
51793;DHT22;37850;53.178;6.376;2023-04-24T10:06:53;9.40;99.90
51793;DHT22;37850;53.178;6.376;2023-04-24T10:09:21;9.40;99.90
51793;DHT22;37850;53.178;6.376;2023-04-24T10:11:52;9.40;99.90
51793;DHT22;37850;53.178;6.376;2023-04-24T10:14:22;9.50;99.90
51793;DHT22;37850;53.178;6.376;2023-04-24T10:16:50;9.50;99.90
51793;DHT22;37850;53.178;6.376;2023-04-24T10:19:18;9.50;99.90
51793;DHT22;37850;53.178;6.376;2023-04-24T10:21:47;9.50;99.90
51793;DHT22;37850;53.178;6.376;2023-04-24T10:24:14;9.60;99.90
51793;DHT22;37850;53.178;6.376;2023-04-24T10:26:41;9.60;99.90
51793;DHT22;37850;53.178;6.376;2023-04-24T10:29:08;9.60;99.90
51793;DHT22;37850;53.178;6.376;2023-04-24T10:31:36;9.80;99.90
51793;DHT22;37850;53.178;6.376;2023-04-24T10:34:02;9.60;99.90
51793;DHT22;37850;53.178;6.376;2023-04-24T10:36:30;9.60;99.90
51793;DHT22;37850;53.178;6.376;2023-04-24T10:39:00;9.60;99.90
51793;DHT22;37850;53.178;6.376;2023-04-24T10:41:26;9.70;99.90
51793;DHT22;37850;53.178;6.376;2023-04-24T10:44:09;9.70;99.90
51793;DHT22;37850;53.178;6.376;2023-04-24T10:46:36;9.60;99.90
51793;DHT22;37850;53.178;6.376;2023-04-24T10:49:06;9.70;99.90
51793;DHT22;37850;53.178;6.376;2023-04-24T10:51:53;9.70;99.90
51793;DHT22;37850;53.178;6.376;2023-04-24T10:54:34;9.90;99.90
51793;DHT22;37850;53.178;6.376;2023-04-24T11:02:15;9.70;99.90
51793;DHT22;37850;53.178;6.376;2023-04-24T11:04:41;9.70;99.90
51793;DHT22;37850;53.178;6.376;2023-04-24T11:07:09;10.20;99.90
51793;DHT22;37850;53.178;6.376;2023-04-24T11:09:35;9.70;99.90
51793;DHT22;37850;53.178;6.376;2023-04-24T11:12:12;9.70;99.90
51793;DHT22;37850;53.178;6.376;2023-04-24T11:17:34;9.70;99.90
51793;DHT22;37850;53.178;6.376;2023-04-24T11:20:07;9.60;99.90
51793;DHT22;37850;53.178;6.376;2023-04-24T11:22:35;9.60;99.90
51793;DHT22;37850;53.178;6.376;2023-04-24T11:25:04;9.60;99.90
51793;DHT22;37850;53.178;6.376;2023-04-24T11:27:31;9.60;99.90
51793;DHT22;37850;53.178;6.376;2023-04-24T11:32:30;9.60;99.90
51793;DHT22;37850;53.178;6.376;2023-04-24T11:35:16;9.60;99.90
51793;DHT22;37850;53.178;6.376;2023-04-24T11:37:44;9.60;99.90
51793;DHT22;37850;53.178;6.376;2023-04-24T11:40:15;9.60;99.90
51793;DHT22;37850;53.178;6.376;2023-04-24T11:42:44;9.60;99.90
51793;DHT22;37850;53.178;6.376;2023-04-24T11:47:43;9.60;99.90
51793;DHT22;37850;53.178;6.376;2023-04-24T11:50:14;9.50;99.90
51793;DHT22;37850;53.178;6.376;2023-04-24T11:52:41;9.40;99.90
51793;DHT22;37850;53.178;6.376;2023-04-24T11:57:42;9.30;99.90
51793;DHT22;37850;53.178;6.376;2023-04-24T12:00:15;9.20;99.90
51793;DHT22;37850;53.178;6.376;2023-04-24T12:02:43;9.20;99.90
51793;DHT22;37850;53.178;6.376;2023-04-24T12:05:09;9.20;99.90
51793;DHT22;37850;53.178;6.376;2023-04-24T12:07:44;9.30;99.90
51793;DHT22;37850;53.178;6.376;2023-04-24T12:10:10;9.20;99.90
51793;DHT22;37850;53.178;6.376;2023-04-24T12:12:36;9.20;99.90
51793;DHT22;37850;53.178;6.376;2023-04-24T12:15:07;9.20;99.90
51793;DHT22;37850;53.178;6.376;2023-04-24T12:17:34;9.30;99.90
51793;DHT22;37850;53.178;6.376;2023-04-24T12:20:05;9.30;99.90
51793;DHT22;37850;53.178;6.376;2023-04-24T12:25:17;9.30;99.90
51793;DHT22;37850;53.178;6.376;2023-04-24T12:27:50;9.40;99.90
51793;DHT22;37850;53.178;6.376;2023-04-24T12:30:17;9.50;99.90
51793;DHT22;37850;53.178;6.376;2023-04-24T12:32:48;9.80;99.90
51793;DHT22;37850;53.178;6.376;2023-04-24T12:35:25;9.40;99.90
51793;DHT22;37850;53.178;6.376;2023-04-24T12:37:51;9.40;99.90
51793;DHT22;37850;53.178;6.376;2023-04-24T12:40:19;9.40;99.90
51793;DHT22;37850;53.178;6.376;2023-04-24T12:42:49;9.40;99.90
51793;DHT22;37850;53.178;6.376;2023-04-24T12:45:16;9.50;99.90
51793;DHT22;37850;53.178;6.376;2023-04-24T12:47:43;9.50;99.90
51793;DHT22;37850;53.178;6.376;2023-04-24T12:50:14;9.40;99.90
51793;DHT22;37850;53.178;6.376;2023-04-24T12:52:41;9.40;99.90
51793;DHT22;37850;53.178;6.376;2023-04-24T12:55:07;9.50;99.90
51793;DHT22;37850;53.178;6.376;2023-04-24T12:57:34;9.40;99.90
51793;DHT22;37850;53.178;6.376;2023-04-24T13:00:00;9.70;99.90
51793;DHT22;37850;53.178;6.376;2023-04-24T13:02:28;9.20;99.90
51793;DHT22;37850;53.178;6.376;2023-04-24T13:04:58;10.00;99.90
51793;DHT22;37850;53.178;6.376;2023-04-24T13:07:24;9.40;99.90
51793;DHT22;37850;53.178;6.376;2023-04-24T13:09:51;9.50;99.90
51793;DHT22;37850;53.178;6.376;2023-04-24T13:12:17;9.50;99.90
51793;DHT22;37850;53.178;6.376;2023-04-24T13:14:43;9.50;99.90
51793;DHT22;37850;53.178;6.376;2023-04-24T13:17:09;9.90;99.90
51793;DHT22;37850;53.178;6.376;2023-04-24T13:19:40;9.50;99.90
51793;DHT22;37850;53.178;6.376;2023-04-24T13:22:08;9.50;99.90
51793;DHT22;37850;53.178;6.376;2023-04-24T13:24:34;9.50;99.90
51793;DHT22;37850;53.178;6.376;2023-04-24T13:27:00;9.50;99.90
51793;DHT22;37850;53.178;6.376;2023-04-24T13:29:26;9.50;99.90
51793;DHT22;37850;53.178;6.376;2023-04-24T13:31:53;9.50;99.90
51793;DHT22;37850;53.178;6.376;2023-04-24T13:34:23;9.60;99.90
51793;DHT22;37850;53.178;6.376;2023-04-24T13:36:51;9.60;99.90
51793;DHT22;37850;53.178;6.376;2023-04-24T13:39:17;9.60;99.90
51793;DHT22;37850;53.178;6.376;2023-04-24T13:41:43;9.60;99.90
51793;DHT22;37850;53.178;6.376;2023-04-24T13:44:08;9.60;99.90
51793;DHT22;37850;53.178;6.376;2023-04-24T13:46:34;9.60;99.90
51793;DHT22;37850;53.178;6.376;2023-04-24T13:49:02;9.50;99.90
51793;DHT22;37850;53.178;6.376;2023-04-24T13:51:29;10.00;99.90
51793;DHT22;37850;53.178;6.376;2023-04-24T13:53:55;9.50;99.90
51793;DHT22;37850;53.178;6.376;2023-04-24T13:56:24;9.60;99.90
51793;DHT22;37850;53.178;6.376;2023-04-24T13:58:50;9.50;99.90
51793;DHT22;37850;53.178;6.376;2023-04-24T14:01:15;9.50;99.90
51793;DHT22;37850;53.178;6.376;2023-04-24T14:03:42;9.40;99.90
51793;DHT22;37850;53.178;6.376;2023-04-24T14:06:11;9.30;99.90
51793;DHT22;37850;53.178;6.376;2023-04-24T14:08:36;9.30;99.90
51793;DHT22;37850;53.178;6.376;2023-04-24T14:11:02;9.30;99.90
51793;DHT22;37850;53.178;6.376;2023-04-24T14:13:28;9.30;99.90
51793;DHT22;37850;53.178;6.376;2023-04-24T14:15:54;9.30;99.90
51793;DHT22;37850;53.178;6.376;2023-04-24T14:18:20;9.30;99.90
51793;DHT22;37850;53.178;6.376;2023-04-24T14:20:46;9.30;99.90
51793;DHT22;37850;53.178;6.376;2023-04-24T14:23:11;9.30;99.90
51793;DHT22;37850;53.178;6.376;2023-04-24T14:25:37;9.30;99.90
51793;DHT22;37850;53.178;6.376;2023-04-24T14:28:03;9.80;99.90
51793;DHT22;37850;53.178;6.376;2023-04-24T14:30:28;9.40;99.90
51793;DHT22;37850;53.178;6.376;2023-04-24T14:32:54;9.70;99.90
51793;DHT22;37850;53.178;6.376;2023-04-24T14:35:22;9.40;99.90
51793;DHT22;37850;53.178;6.376;2023-04-24T14:37:47;9.50;99.90
51793;DHT22;37850;53.178;6.376;2023-04-24T14:40:14;9.50;99.90
51793;DHT22;37850;53.178;6.376;2023-04-24T14:42:40;9.50;99.90
51793;DHT22;37850;53.178;6.376;2023-04-24T14:45:06;9.50;99.90
51793;DHT22;37850;53.178;6.376;2023-04-24T14:47:33;9.50;99.90
51793;DHT22;37850;53.178;6.376;2023-04-24T14:49:59;9.50;99.90
51793;DHT22;37850;53.178;6.376;2023-04-24T14:52:25;9.40;99.90
51793;DHT22;37850;53.178;6.376;2023-04-24T14:54:50;9.40;99.90
51793;DHT22;37850;53.178;6.376;2023-04-24T14:57:16;9.40;99.90
51793;DHT22;37850;53.178;6.376;2023-04-24T14:59:42;9.50;99.90
51793;DHT22;37850;53.178;6.376;2023-04-24T15:02:07;9.30;99.90
51793;DHT22;37850;53.178;6.376;2023-04-24T15:04:33;9.40;99.90
51793;DHT22;37850;53.178;6.376;2023-04-24T15:06:59;9.40;99.90
51793;DHT22;37850;53.178;6.376;2023-04-24T15:09:25;9.30;99.90
51793;DHT22;37850;53.178;6.376;2023-04-24T15:11:52;9.40;99.90
51793;DHT22;37850;53.178;6.376;2023-04-24T15:14:18;9.30;99.90
51793;DHT22;37850;53.178;6.376;2023-04-24T15:16:44;9.30;99.90
51793;DHT22;37850;53.178;6.376;2023-04-24T15:19:10;9.30;99.90
51793;DHT22;37850;53.178;6.376;2023-04-24T15:21:37;9.30;99.90
51793;DHT22;37850;53.178;6.376;2023-04-24T15:24:04;9.30;99.90
51793;DHT22;37850;53.178;6.376;2023-04-24T15:26:30;9.30;99.90
51793;DHT22;37850;53.178;6.376;2023-04-24T15:28:55;9.40;99.90
51793;DHT22;37850;53.178;6.376;2023-04-24T15:31:22;9.40;99.90
51793;DHT22;37850;53.178;6.376;2023-04-24T15:33:51;9.40;99.90
51793;DHT22;37850;53.178;6.376;2023-04-24T15:36:18;9.40;99.90
51793;DHT22;37850;53.178;6.376;2023-04-24T15:38:44;9.30;99.90
51793;DHT22;37850;53.178;6.376;2023-04-24T15:41:10;9.30;99.90
51793;DHT22;37850;53.178;6.376;2023-04-24T15:43:36;9.30;99.90
51793;DHT22;37850;53.178;6.376;2023-04-24T15:46:04;9.30;99.90
51793;DHT22;37850;53.178;6.376;2023-04-24T15:48:31;9.20;99.90
51793;DHT22;37850;53.178;6.376;2023-04-24T15:50:56;9.20;99.90
51793;DHT22;37850;53.178;6.376;2023-04-24T15:53:22;9.20;99.90
51793;DHT22;37850;53.178;6.376;2023-04-24T15:55:49;9.20;99.90